sensor_id;sensor_type;location;lat;lon;timestamp;P1;durP1;ratioP1;P2;durP2;ratioP2
18125;SDS011;53956;52.442;13.284;2022-09-17T00:01:22;7.50;;;2.17;;
18125;SDS011;53956;52.442;13.284;2022-09-17T00:03:51;5.40;;;1.80;;
18125;SDS011;53956;52.442;13.284;2022-09-17T00:06:19;5.93;;;2.30;;
18125;SDS011;53956;52.442;13.284;2022-09-17T00:08:47;9.77;;;2.57;;
18125;SDS011;53956;52.442;13.284;2022-09-17T00:11:15;6.93;;;2.33;;
18125;SDS011;53956;52.442;13.284;2022-09-17T00:13:45;7.40;;;2.10;;
18125;SDS011;53956;52.442;13.284;2022-09-17T00:16:19;4.83;;;2.10;;
18125;SDS011;53956;52.442;13.284;2022-09-17T00:18:48;7.97;;;2.20;;
18125;SDS011;53956;52.442;13.284;2022-09-17T00:21:15;5.77;;;2.20;;
18125;SDS011;53956;52.442;13.284;2022-09-17T00:23:42;6.20;;;2.20;;
18125;SDS011;53956;52.442;13.284;2022-09-17T00:26:09;6.43;;;2.10;;
18125;SDS011;53956;52.442;13.284;2022-09-17T00:28:36;6.07;;;2.10;;
18125;SDS011;53956;52.442;13.284;2022-09-17T00:31:05;8.60;;;2.63;;
18125;SDS011;53956;52.442;13.284;2022-09-17T00:33:34;8.43;;;2.10;;
18125;SDS011;53956;52.442;13.284;2022-09-17T00:36:01;7.60;;;2.17;;
18125;SDS011;53956;52.442;13.284;2022-09-17T00:38:29;6.40;;;2.23;;
18125;SDS011;53956;52.442;13.284;2022-09-17T00:40:56;5.57;;;2.03;;
18125;SDS011;53956;52.442;13.284;2022-09-17T00:43:39;5.53;;;2.40;;
18125;SDS011;53956;52.442;13.284;2022-09-17T00:46:17;6.77;;;1.80;;
18125;SDS011;53956;52.442;13.284;2022-09-17T00:48:52;6.13;;;2.00;;
18125;SDS011;53956;52.442;13.284;2022-09-17T00:51:21;6.80;;;1.90;;
18125;SDS011;53956;52.442;13.284;2022-09-17T00:53:54;5.73;;;2.10;;
18125;SDS011;53956;52.442;13.284;2022-09-17T00:56:23;6.40;;;2.00;;
18125;SDS011;53956;52.442;13.284;2022-09-17T00:58:52;4.87;;;2.07;;
18125;SDS011;53956;52.442;13.284;2022-09-17T01:01:20;6.07;;;2.53;;
18125;SDS011;53956;52.442;13.284;2022-09-17T01:03:47;9.07;;;2.60;;
18125;SDS011;53956;52.442;13.284;2022-09-17T01:06:17;3.97;;;2.03;;
18125;SDS011;53956;52.442;13.284;2022-09-17T01:08:58;6.47;;;2.23;;
18125;SDS011;53956;52.442;13.284;2022-09-17T01:11:41;4.57;;;2.20;;
18125;SDS011;53956;52.442;13.284;2022-09-17T01:14:22;6.67;;;2.03;;
18125;SDS011;53956;52.442;13.284;2022-09-17T01:17:02;4.30;;;2.17;;
18125;SDS011;53956;52.442;13.284;2022-09-17T01:19:41;7.07;;;1.90;;
18125;SDS011;53956;52.442;13.284;2022-09-17T01:22:52;5.77;;;2.13;;
18125;SDS011;53956;52.442;13.284;2022-09-17T01:25:30;8.37;;;2.43;;
18125;SDS011;53956;52.442;13.284;2022-09-17T01:28:21;7.80;;;2.40;;
18125;SDS011;53956;52.442;13.284;2022-09-17T01:31:03;7.60;;;2.27;;
18125;SDS011;53956;52.442;13.284;2022-09-17T01:33:50;7.20;;;2.40;;
18125;SDS011;53956;52.442;13.284;2022-09-17T01:36:29;6.87;;;2.00;;
18125;SDS011;53956;52.442;13.284;2022-09-17T01:39:06;5.00;;;2.20;;
18125;SDS011;53956;52.442;13.284;2022-09-17T01:41:40;3.80;;;1.80;;
18125;SDS011;53956;52.442;13.284;2022-09-17T01:44:14;5.27;;;1.80;;
18125;SDS011;53956;52.442;13.284;2022-09-17T01:46:47;7.70;;;2.00;;
18125;SDS011;53956;52.442;13.284;2022-09-17T01:49:18;6.30;;;2.00;;
18125;SDS011;53956;52.442;13.284;2022-09-17T01:51:49;7.43;;;1.90;;
18125;SDS011;53956;52.442;13.284;2022-09-17T01:54:19;6.60;;;2.40;;
18125;SDS011;53956;52.442;13.284;2022-09-17T01:56:50;5.33;;;1.93;;
18125;SDS011;53956;52.442;13.284;2022-09-17T01:59:21;4.67;;;1.90;;
18125;SDS011;53956;52.442;13.284;2022-09-17T02:01:56;4.70;;;1.90;;
18125;SDS011;53956;52.442;13.284;2022-09-17T02:04:27;7.17;;;2.47;;
18125;SDS011;53956;52.442;13.284;2022-09-17T02:06:59;8.10;;;2.17;;
18125;SDS011;53956;52.442;13.284;2022-09-17T02:09:30;7.37;;;2.10;;
18125;SDS011;53956;52.442;13.284;2022-09-17T02:12:02;6.73;;;2.00;;
18125;SDS011;53956;52.442;13.284;2022-09-17T02:14:33;6.10;;;1.93;;
18125;SDS011;53956;52.442;13.284;2022-09-17T02:17:05;7.37;;;2.20;;
18125;SDS011;53956;52.442;13.284;2022-09-17T02:19:38;6.93;;;2.37;;
18125;SDS011;53956;52.442;13.284;2022-09-17T02:22:08;8.73;;;2.40;;
18125;SDS011;53956;52.442;13.284;2022-09-17T02:24:41;9.23;;;2.37;;
18125;SDS011;53956;52.442;13.284;2022-09-17T02:27:15;7.03;;;2.50;;
18125;SDS011;53956;52.442;13.284;2022-09-17T02:29:47;7.90;;;2.30;;
18125;SDS011;53956;52.442;13.284;2022-09-17T02:32:16;6.67;;;2.07;;
18125;SDS011;53956;52.442;13.284;2022-09-17T02:34:42;9.27;;;2.47;;
18125;SDS011;53956;52.442;13.284;2022-09-17T02:37:09;11.13;;;2.53;;
18125;SDS011;53956;52.442;13.284;2022-09-17T02:39:36;7.03;;;2.50;;
18125;SDS011;53956;52.442;13.284;2022-09-17T02:42:04;7.83;;;2.30;;
18125;SDS011;53956;52.442;13.284;2022-09-17T02:44:49;10.00;;;2.40;;
18125;SDS011;53956;52.442;13.284;2022-09-17T02:47:33;7.17;;;2.30;;
18125;SDS011;53956;52.442;13.284;2022-09-17T02:50:21;7.70;;;2.40;;
18125;SDS011;53956;52.442;13.284;2022-09-17T02:52:57;8.33;;;2.50;;
18125;SDS011;53956;52.442;13.284;2022-09-17T02:55:37;5.77;;;2.30;;
18125;SDS011;53956;52.442;13.284;2022-09-17T02:58:13;9.07;;;2.20;;
18125;SDS011;53956;52.442;13.284;2022-09-17T03:00:46;7.37;;;2.10;;
18125;SDS011;53956;52.442;13.284;2022-09-17T03:03:15;8.70;;;2.37;;
18125;SDS011;53956;52.442;13.284;2022-09-17T03:05:46;10.50;;;2.47;;
18125;SDS011;53956;52.442;13.284;2022-09-17T03:08:13;7.10;;;2.37;;
18125;SDS011;53956;52.442;13.284;2022-09-17T03:10:42;8.53;;;2.10;;
18125;SDS011;53956;52.442;13.284;2022-09-17T03:13:09;7.27;;;2.23;;
18125;SDS011;53956;52.442;13.284;2022-09-17T03:15:36;5.57;;;2.20;;
18125;SDS011;53956;52.442;13.284;2022-09-17T03:18:02;9.57;;;2.27;;
18125;SDS011;53956;52.442;13.284;2022-09-17T03:20:30;7.47;;;2.10;;
18125;SDS011;53956;52.442;13.284;2022-09-17T03:22:57;8.57;;;2.20;;
18125;SDS011;53956;52.442;13.284;2022-09-17T03:25:24;7.93;;;2.27;;
18125;SDS011;53956;52.442;13.284;2022-09-17T03:27:50;7.73;;;2.20;;
18125;SDS011;53956;52.442;13.284;2022-09-17T03:30:17;6.90;;;2.00;;
18125;SDS011;53956;52.442;13.284;2022-09-17T03:32:44;9.70;;;2.77;;
18125;SDS011;53956;52.442;13.284;2022-09-17T03:35:11;8.60;;;2.20;;
18125;SDS011;53956;52.442;13.284;2022-09-17T03:37:39;6.63;;;2.50;;
18125;SDS011;53956;52.442;13.284;2022-09-17T03:40:07;8.47;;;2.30;;
18125;SDS011;53956;52.442;13.284;2022-09-17T03:42:34;7.20;;;2.30;;
18125;SDS011;53956;52.442;13.284;2022-09-17T03:45:01;7.23;;;2.40;;
18125;SDS011;53956;52.442;13.284;2022-09-17T03:47:27;7.20;;;2.37;;
18125;SDS011;53956;52.442;13.284;2022-09-17T03:49:54;6.17;;;2.40;;
18125;SDS011;53956;52.442;13.284;2022-09-17T03:52:20;8.37;;;2.47;;
18125;SDS011;53956;52.442;13.284;2022-09-17T03:54:48;6.20;;;2.20;;
18125;SDS011;53956;52.442;13.284;2022-09-17T03:57:15;8.33;;;2.33;;
18125;SDS011;53956;52.442;13.284;2022-09-17T03:59:42;5.53;;;2.43;;
18125;SDS011;53956;52.442;13.284;2022-09-17T04:02:08;8.23;;;2.40;;
18125;SDS011;53956;52.442;13.284;2022-09-17T04:04:35;9.10;;;2.40;;
18125;SDS011;53956;52.442;13.284;2022-09-17T04:07:02;10.83;;;2.43;;
18125;SDS011;53956;52.442;13.284;2022-09-17T04:09:29;6.73;;;2.40;;
18125;SDS011;53956;52.442;13.284;2022-09-17T04:11:57;8.00;;;2.00;;
18125;SDS011;53956;52.442;13.284;2022-09-17T04:14:24;6.77;;;2.10;;
18125;SDS011;53956;52.442;13.284;2022-09-17T04:16:51;9.73;;;2.70;;
18125;SDS011;53956;52.442;13.284;2022-09-17T04:19:17;6.30;;;2.20;;
18125;SDS011;53956;52.442;13.284;2022-09-17T04:21:44;7.40;;;2.67;;
18125;SDS011;53956;52.442;13.284;2022-09-17T04:24:10;8.53;;;2.50;;
18125;SDS011;53956;52.442;13.284;2022-09-17T04:26:37;6.23;;;2.00;;
18125;SDS011;53956;52.442;13.284;2022-09-17T04:29:05;10.77;;;2.50;;
18125;SDS011;53956;52.442;13.284;2022-09-17T04:31:32;8.00;;;2.50;;
18125;SDS011;53956;52.442;13.284;2022-09-17T04:33:58;8.50;;;2.40;;
18125;SDS011;53956;52.442;13.284;2022-09-17T04:36:25;6.80;;;2.13;;
18125;SDS011;53956;52.442;13.284;2022-09-17T04:38:52;5.67;;;1.93;;
18125;SDS011;53956;52.442;13.284;2022-09-17T04:41:18;8.17;;;2.70;;
18125;SDS011;53956;52.442;13.284;2022-09-17T04:43:45;7.77;;;3.00;;
18125;SDS011;53956;52.442;13.284;2022-09-17T04:46:13;9.07;;;2.73;;
18125;SDS011;53956;52.442;13.284;2022-09-17T04:48:40;6.80;;;2.50;;
18125;SDS011;53956;52.442;13.284;2022-09-17T04:51:07;8.03;;;2.57;;
18125;SDS011;53956;52.442;13.284;2022-09-17T04:53:34;12.43;;;2.63;;
18125;SDS011;53956;52.442;13.284;2022-09-17T04:56:01;7.03;;;2.00;;
18125;SDS011;53956;52.442;13.284;2022-09-17T04:58:27;8.90;;;2.70;;
18125;SDS011;53956;52.442;13.284;2022-09-17T05:00:55;7.63;;;2.37;;
18125;SDS011;53956;52.442;13.284;2022-09-17T05:03:23;9.00;;;2.60;;
18125;SDS011;53956;52.442;13.284;2022-09-17T05:05:50;3.97;;;2.33;;
18125;SDS011;53956;52.442;13.284;2022-09-17T05:08:16;9.30;;;2.30;;
18125;SDS011;53956;52.442;13.284;2022-09-17T05:10:43;7.43;;;2.27;;
18125;SDS011;53956;52.442;13.284;2022-09-17T05:13:10;12.77;;;3.07;;
18125;SDS011;53956;52.442;13.284;2022-09-17T05:15:36;9.93;;;2.60;;
18125;SDS011;53956;52.442;13.284;2022-09-17T05:18:03;6.87;;;2.63;;
18125;SDS011;53956;52.442;13.284;2022-09-17T05:20:31;7.97;;;2.80;;
18125;SDS011;53956;52.442;13.284;2022-09-17T05:22:57;7.80;;;2.40;;
18125;SDS011;53956;52.442;13.284;2022-09-17T05:25:24;10.50;;;2.70;;
18125;SDS011;53956;52.442;13.284;2022-09-17T05:27:51;9.17;;;2.63;;
18125;SDS011;53956;52.442;13.284;2022-09-17T05:30:18;5.50;;;2.50;;
18125;SDS011;53956;52.442;13.284;2022-09-17T05:32:45;8.43;;;2.73;;
18125;SDS011;53956;52.442;13.284;2022-09-17T05:35:12;10.83;;;2.70;;
18125;SDS011;53956;52.442;13.284;2022-09-17T05:37:41;8.03;;;2.63;;
18125;SDS011;53956;52.442;13.284;2022-09-17T05:40:08;7.80;;;2.60;;
18125;SDS011;53956;52.442;13.284;2022-09-17T05:42:35;6.83;;;2.67;;
18125;SDS011;53956;52.442;13.284;2022-09-17T05:45:02;6.43;;;2.80;;
18125;SDS011;53956;52.442;13.284;2022-09-17T05:47:29;11.43;;;3.30;;
18125;SDS011;53956;52.442;13.284;2022-09-17T05:49:56;10.97;;;3.60;;
18125;SDS011;53956;52.442;13.284;2022-09-17T05:52:25;11.27;;;3.50;;
18125;SDS011;53956;52.442;13.284;2022-09-17T05:54:54;11.47;;;3.60;;
18125;SDS011;53956;52.442;13.284;2022-09-17T05:57:20;6.93;;;3.30;;
18125;SDS011;53956;52.442;13.284;2022-09-17T05:59:47;10.93;;;3.77;;
18125;SDS011;53956;52.442;13.284;2022-09-17T06:02:14;10.33;;;4.10;;
18125;SDS011;53956;52.442;13.284;2022-09-17T06:04:40;15.83;;;4.70;;
18125;SDS011;53956;52.442;13.284;2022-09-17T06:07:07;15.73;;;4.17;;
18125;SDS011;53956;52.442;13.284;2022-09-17T06:09:34;11.13;;;3.97;;
18125;SDS011;53956;52.442;13.284;2022-09-17T06:12:03;10.40;;;3.87;;
18125;SDS011;53956;52.442;13.284;2022-09-17T06:14:30;17.33;;;4.27;;
18125;SDS011;53956;52.442;13.284;2022-09-17T06:16:57;15.60;;;4.07;;
18125;SDS011;53956;52.442;13.284;2022-09-17T06:19:24;16.93;;;4.17;;
18125;SDS011;53956;52.442;13.284;2022-09-17T06:21:50;16.00;;;4.27;;
18125;SDS011;53956;52.442;13.284;2022-09-17T06:24:17;16.97;;;4.30;;
18125;SDS011;53956;52.442;13.284;2022-09-17T06:26:44;22.57;;;4.70;;
18125;SDS011;53956;52.442;13.284;2022-09-17T06:29:11;19.53;;;4.60;;
18125;SDS011;53956;52.442;13.284;2022-09-17T06:31:39;17.07;;;4.23;;
18125;SDS011;53956;52.442;13.284;2022-09-17T06:34:08;17.73;;;4.47;;
18125;SDS011;53956;52.442;13.284;2022-09-17T06:36:34;15.53;;;4.53;;
18125;SDS011;53956;52.442;13.284;2022-09-17T06:39:01;15.77;;;4.80;;
18125;SDS011;53956;52.442;13.284;2022-09-17T06:41:28;21.97;;;4.67;;
18125;SDS011;53956;52.442;13.284;2022-09-17T06:43:55;17.43;;;4.70;;
18125;SDS011;53956;52.442;13.284;2022-09-17T06:46:23;16.37;;;4.87;;
18125;SDS011;53956;52.442;13.284;2022-09-17T06:48:49;15.23;;;4.23;;
18125;SDS011;53956;52.442;13.284;2022-09-17T06:51:16;15.00;;;4.03;;
18125;SDS011;53956;52.442;13.284;2022-09-17T06:53:43;15.97;;;4.00;;
18125;SDS011;53956;52.442;13.284;2022-09-17T06:56:09;13.57;;;3.70;;
18125;SDS011;53956;52.442;13.284;2022-09-17T06:58:36;12.73;;;3.93;;
18125;SDS011;53956;52.442;13.284;2022-09-17T07:01:05;17.60;;;3.67;;
18125;SDS011;53956;52.442;13.284;2022-09-17T07:03:33;14.10;;;3.43;;
18125;SDS011;53956;52.442;13.284;2022-09-17T07:06:00;13.30;;;3.40;;
18125;SDS011;53956;52.442;13.284;2022-09-17T07:08:27;13.33;;;3.50;;
18125;SDS011;53956;52.442;13.284;2022-09-17T07:10:54;13.30;;;3.43;;
18125;SDS011;53956;52.442;13.284;2022-09-17T07:13:21;17.33;;;3.90;;
18125;SDS011;53956;52.442;13.284;2022-09-17T07:15:51;12.57;;;3.07;;
18125;SDS011;53956;52.442;13.284;2022-09-17T07:18:19;13.27;;;3.27;;
18125;SDS011;53956;52.442;13.284;2022-09-17T07:20:52;18.17;;;3.60;;
18125;SDS011;53956;52.442;13.284;2022-09-17T07:23:20;14.07;;;3.07;;
18125;SDS011;53956;52.442;13.284;2022-09-17T07:25:50;15.67;;;3.43;;
18125;SDS011;53956;52.442;13.284;2022-09-17T07:28:17;12.60;;;3.40;;
18125;SDS011;53956;52.442;13.284;2022-09-17T07:30:44;14.67;;;2.87;;
18125;SDS011;53956;52.442;13.284;2022-09-17T07:33:10;14.47;;;3.03;;
18125;SDS011;53956;52.442;13.284;2022-09-17T07:35:37;15.07;;;2.87;;
18125;SDS011;53956;52.442;13.284;2022-09-17T07:38:05;11.90;;;3.03;;
18125;SDS011;53956;52.442;13.284;2022-09-17T07:40:32;13.97;;;3.00;;
18125;SDS011;53956;52.442;13.284;2022-09-17T07:42:58;11.33;;;3.10;;
18125;SDS011;53956;52.442;13.284;2022-09-17T07:45:25;13.50;;;3.17;;
18125;SDS011;53956;52.442;13.284;2022-09-17T07:47:51;20.87;;;3.40;;
18125;SDS011;53956;52.442;13.284;2022-09-17T07:50:18;18.40;;;3.40;;
18125;SDS011;53956;52.442;13.284;2022-09-17T07:52:45;12.90;;;3.10;;
18125;SDS011;53956;52.442;13.284;2022-09-17T07:55:13;13.73;;;3.20;;
18125;SDS011;53956;52.442;13.284;2022-09-17T07:57:40;15.13;;;3.10;;
18125;SDS011;53956;52.442;13.284;2022-09-17T08:00:07;15.90;;;3.70;;
18125;SDS011;53956;52.442;13.284;2022-09-17T08:02:37;11.83;;;2.90;;
18125;SDS011;53956;52.442;13.284;2022-09-17T08:05:04;14.33;;;3.23;;
18125;SDS011;53956;52.442;13.284;2022-09-17T08:07:31;10.43;;;3.40;;
18125;SDS011;53956;52.442;13.284;2022-09-17T08:09:58;11.67;;;3.20;;
18125;SDS011;53956;52.442;13.284;2022-09-17T08:12:27;14.23;;;3.23;;
18125;SDS011;53956;52.442;13.284;2022-09-17T08:14:53;14.63;;;3.77;;
18125;SDS011;53956;52.442;13.284;2022-09-17T08:17:20;13.20;;;3.03;;
18125;SDS011;53956;52.442;13.284;2022-09-17T08:19:47;10.00;;;3.00;;
18125;SDS011;53956;52.442;13.284;2022-09-17T08:22:13;13.30;;;3.03;;
18125;SDS011;53956;52.442;13.284;2022-09-17T08:24:41;13.33;;;3.07;;
18125;SDS011;53956;52.442;13.284;2022-09-17T08:27:07;13.30;;;3.17;;
18125;SDS011;53956;52.442;13.284;2022-09-17T08:29:35;10.83;;;3.20;;
18125;SDS011;53956;52.442;13.284;2022-09-17T08:32:02;9.73;;;2.70;;
18125;SDS011;53956;52.442;13.284;2022-09-17T08:34:28;10.03;;;3.13;;
18125;SDS011;53956;52.442;13.284;2022-09-17T08:36:55;15.15;;;3.10;;
18125;SDS011;53956;52.442;13.284;2022-09-17T08:39:22;9.18;;;2.80;;
18125;SDS011;53956;52.442;13.284;2022-09-17T08:41:50;11.10;;;2.97;;
18125;SDS011;53956;52.442;13.284;2022-09-17T08:44:22;11.35;;;2.58;;
18125;SDS011;53956;52.442;13.284;2022-09-17T08:46:53;11.27;;;2.60;;
18125;SDS011;53956;52.442;13.284;2022-09-17T08:49:28;11.20;;;2.75;;
18125;SDS011;53956;52.442;13.284;2022-09-17T08:52:11;14.23;;;2.65;;
18125;SDS011;53956;52.442;13.284;2022-09-17T08:54:56;12.02;;;2.33;;
18125;SDS011;53956;52.442;13.284;2022-09-17T08:57:28;12.00;;;2.47;;
18125;SDS011;53956;52.442;13.284;2022-09-17T09:00:05;11.98;;;2.97;;
18125;SDS011;53956;52.442;13.284;2022-09-17T09:02:52;11.55;;;2.80;;
18125;SDS011;53956;52.442;13.284;2022-09-17T09:05:28;11.68;;;2.78;;
18125;SDS011;53956;52.442;13.284;2022-09-17T09:08:02;11.38;;;2.33;;
18125;SDS011;53956;52.442;13.284;2022-09-17T09:10:34;12.00;;;2.42;;
18125;SDS011;53956;52.442;13.284;2022-09-17T09:13:08;10.25;;;2.42;;
18125;SDS011;53956;52.442;13.284;2022-09-17T09:15:37;12.35;;;2.83;;
18125;SDS011;53956;52.442;13.284;2022-09-17T09:18:12;13.00;;;2.63;;
18125;SDS011;53956;52.442;13.284;2022-09-17T09:20:47;10.25;;;2.78;;
18125;SDS011;53956;52.442;13.284;2022-09-17T09:23:17;11.20;;;2.42;;
18125;SDS011;53956;52.442;13.284;2022-09-17T09:25:51;14.05;;;2.85;;
18125;SDS011;53956;52.442;13.284;2022-09-17T09:28:28;11.48;;;2.65;;
18125;SDS011;53956;52.442;13.284;2022-09-17T09:31:03;13.38;;;3.08;;
18125;SDS011;53956;52.442;13.284;2022-09-17T09:33:43;10.07;;;2.70;;
18125;SDS011;53956;52.442;13.284;2022-09-17T09:36:12;9.75;;;2.65;;
18125;SDS011;53956;52.442;13.284;2022-09-17T09:38:45;12.38;;;2.83;;
18125;SDS011;53956;52.442;13.284;2022-09-17T09:41:18;10.82;;;2.55;;
18125;SDS011;53956;52.442;13.284;2022-09-17T09:43:51;9.70;;;2.30;;
18125;SDS011;53956;52.442;13.284;2022-09-17T09:46:39;10.05;;;2.58;;
18125;SDS011;53956;52.442;13.284;2022-09-17T09:49:19;12.15;;;2.50;;
18125;SDS011;53956;52.442;13.284;2022-09-17T09:52:03;11.18;;;2.40;;
18125;SDS011;53956;52.442;13.284;2022-09-17T09:54:42;12.32;;;2.65;;
18125;SDS011;53956;52.442;13.284;2022-09-17T09:57:19;8.68;;;2.30;;
18125;SDS011;53956;52.442;13.284;2022-09-17T10:00:11;9.48;;;2.42;;
18125;SDS011;53956;52.442;13.284;2022-09-17T10:02:51;10.77;;;2.35;;
18125;SDS011;53956;52.442;13.284;2022-09-17T10:05:22;9.82;;;2.10;;
18125;SDS011;53956;52.442;13.284;2022-09-17T10:07:49;10.60;;;2.57;;
18125;SDS011;53956;52.442;13.284;2022-09-17T10:10:16;10.80;;;1.80;;
18125;SDS011;53956;52.442;13.284;2022-09-17T10:12:42;13.88;;;2.58;;
18125;SDS011;53956;52.442;13.284;2022-09-17T10:15:23;7.20;;;2.10;;
18125;SDS011;53956;52.442;13.284;2022-09-17T10:18:09;7.43;;;2.13;;
18125;SDS011;53956;52.442;13.284;2022-09-17T10:20:48;9.52;;;2.10;;
18125;SDS011;53956;52.442;13.284;2022-09-17T10:23:23;8.30;;;2.22;;
18125;SDS011;53956;52.442;13.284;2022-09-17T10:25:51;10.00;;;2.40;;
18125;SDS011;53956;52.442;13.284;2022-09-17T10:31:11;6.45;;;1.92;;
18125;SDS011;53956;52.442;13.284;2022-09-17T10:33:39;11.20;;;2.67;;
18125;SDS011;53956;52.442;13.284;2022-09-17T10:36:23;10.75;;;2.38;;
18125;SDS011;53956;52.442;13.284;2022-09-17T10:39:16;11.73;;;2.38;;
18125;SDS011;53956;52.442;13.284;2022-09-17T10:41:55;11.43;;;2.22;;
18125;SDS011;53956;52.442;13.284;2022-09-17T10:44:23;11.15;;;2.28;;
18125;SDS011;53956;52.442;13.284;2022-09-17T10:46:52;10.10;;;2.20;;
18125;SDS011;53956;52.442;13.284;2022-09-17T10:49:22;10.00;;;2.33;;
18125;SDS011;53956;52.442;13.284;2022-09-17T10:52:04;10.95;;;2.20;;
18125;SDS011;53956;52.442;13.284;2022-09-17T10:54:48;10.00;;;2.22;;
18125;SDS011;53956;52.442;13.284;2022-09-17T10:57:26;10.57;;;2.40;;
18125;SDS011;53956;52.442;13.284;2022-09-17T11:00:06;7.78;;;2.20;;
18125;SDS011;53956;52.442;13.284;2022-09-17T11:02:57;12.60;;;2.30;;
18125;SDS011;53956;52.442;13.284;2022-09-17T11:05:53;7.57;;;2.30;;
18125;SDS011;53956;52.442;13.284;2022-09-17T11:08:34;9.32;;;2.33;;
18125;SDS011;53956;52.442;13.284;2022-09-17T11:11:08;10.25;;;2.78;;
18125;SDS011;53956;52.442;13.284;2022-09-17T11:13:37;7.57;;;2.10;;
18125;SDS011;53956;52.442;13.284;2022-09-17T11:16:14;9.10;;;2.28;;
18125;SDS011;53956;52.442;13.284;2022-09-17T11:18:49;8.63;;;2.20;;
18125;SDS011;53956;52.442;13.284;2022-09-17T11:27:15;9.30;;;2.15;;
18125;SDS011;53956;52.442;13.284;2022-09-17T11:30:06;8.27;;;2.30;;
18125;SDS011;53956;52.442;13.284;2022-09-17T11:32:44;11.02;;;2.63;;
18125;SDS011;53956;52.442;13.284;2022-09-17T11:35:19;7.40;;;2.08;;
18125;SDS011;53956;52.442;13.284;2022-09-17T11:37:51;11.25;;;2.70;;
18125;SDS011;53956;52.442;13.284;2022-09-17T11:40:23;6.28;;;2.17;;
18125;SDS011;53956;52.442;13.284;2022-09-17T11:42:55;9.38;;;2.40;;
18125;SDS011;53956;52.442;13.284;2022-09-17T11:45:23;7.05;;;2.20;;
18125;SDS011;53956;52.442;13.284;2022-09-17T11:47:55;8.07;;;2.35;;
18125;SDS011;53956;52.442;13.284;2022-09-17T11:50:29;7.13;;;1.80;;
18125;SDS011;53956;52.442;13.284;2022-09-17T11:53:02;7.95;;;1.50;;
18125;SDS011;53956;52.442;13.284;2022-09-17T11:55:37;6.25;;;2.08;;
18125;SDS011;53956;52.442;13.284;2022-09-17T11:58:11;6.22;;;1.80;;
18125;SDS011;53956;52.442;13.284;2022-09-17T12:00:43;10.25;;;1.90;;
18125;SDS011;53956;52.442;13.284;2022-09-17T12:03:15;6.93;;;1.85;;
18125;SDS011;53956;52.442;13.284;2022-09-17T12:05:50;9.00;;;1.92;;
18125;SDS011;53956;52.442;13.284;2022-09-17T12:08:20;8.43;;;1.83;;
18125;SDS011;53956;52.442;13.284;2022-09-17T12:10:53;6.53;;;1.50;;
18125;SDS011;53956;52.442;13.284;2022-09-17T12:13:29;5.45;;;1.63;;
18125;SDS011;53956;52.442;13.284;2022-09-17T12:16:03;5.15;;;1.55;;
18125;SDS011;53956;52.442;13.284;2022-09-17T12:18:40;6.80;;;2.08;;
18125;SDS011;53956;52.442;13.284;2022-09-17T12:21:14;6.82;;;2.40;;
18125;SDS011;53956;52.442;13.284;2022-09-17T12:23:44;6.18;;;2.00;;
18125;SDS011;53956;52.442;13.284;2022-09-17T12:26:19;5.57;;;1.90;;
18125;SDS011;53956;52.442;13.284;2022-09-17T12:29:01;4.82;;;1.60;;
18125;SDS011;53956;52.442;13.284;2022-09-17T12:31:35;8.80;;;2.10;;
18125;SDS011;53956;52.442;13.284;2022-09-17T12:34:16;7.15;;;1.70;;
18125;SDS011;53956;52.442;13.284;2022-09-17T12:36:53;6.85;;;1.60;;
18125;SDS011;53956;52.442;13.284;2022-09-17T12:39:38;4.70;;;1.50;;
18125;SDS011;53956;52.442;13.284;2022-09-17T12:42:19;9.32;;;2.20;;
18125;SDS011;53956;52.442;13.284;2022-09-17T12:44:58;8.30;;;1.80;;
18125;SDS011;53956;52.442;13.284;2022-09-17T12:47:48;8.70;;;1.92;;
18125;SDS011;53956;52.442;13.284;2022-09-17T12:50:29;7.07;;;1.85;;
18125;SDS011;53956;52.442;13.284;2022-09-17T12:53:13;8.02;;;2.00;;
18125;SDS011;53956;52.442;13.284;2022-09-17T12:55:50;7.05;;;1.88;;
18125;SDS011;53956;52.442;13.284;2022-09-17T12:58:32;7.68;;;1.70;;
18125;SDS011;53956;52.442;13.284;2022-09-17T13:01:12;8.80;;;2.25;;
18125;SDS011;53956;52.442;13.284;2022-09-17T13:03:46;5.30;;;1.80;;
18125;SDS011;53956;52.442;13.284;2022-09-17T13:06:26;9.05;;;1.70;;
18125;SDS011;53956;52.442;13.284;2022-09-17T13:12:21;3.80;;;1.50;;
18125;SDS011;53956;52.442;13.284;2022-09-17T13:17:59;6.78;;;1.50;;
18125;SDS011;53956;52.442;13.284;2022-09-17T13:20:33;3.75;;;1.20;;
18125;SDS011;53956;52.442;13.284;2022-09-17T13:23:07;6.00;;;1.30;;
18125;SDS011;53956;52.442;13.284;2022-09-17T13:25:47;4.13;;;1.30;;
18125;SDS011;53956;52.442;13.284;2022-09-17T13:28:16;5.57;;;1.52;;
18125;SDS011;53956;52.442;13.284;2022-09-17T13:30:56;5.40;;;1.55;;
18125;SDS011;53956;52.442;13.284;2022-09-17T13:36:41;6.38;;;1.50;;
18125;SDS011;53956;52.442;13.284;2022-09-17T13:42:06;3.85;;;1.38;;
18125;SDS011;53956;52.442;13.284;2022-09-17T13:44:38;7.68;;;1.67;;
18125;SDS011;53956;52.442;13.284;2022-09-17T13:47:11;9.57;;;1.63;;
18125;SDS011;53956;52.442;13.284;2022-09-17T13:49:44;4.90;;;1.60;;
18125;SDS011;53956;52.442;13.284;2022-09-17T13:52:13;5.43;;;1.90;;
18125;SDS011;53956;52.442;13.284;2022-09-17T13:54:53;6.53;;;1.80;;
18125;SDS011;53956;52.442;13.284;2022-09-17T13:57:21;7.85;;;1.70;;
18125;SDS011;53956;52.442;13.284;2022-09-17T13:59:52;9.13;;;1.65;;
18125;SDS011;53956;52.442;13.284;2022-09-17T14:02:31;7.70;;;1.67;;
18125;SDS011;53956;52.442;13.284;2022-09-17T14:05:20;6.70;;;1.45;;
18125;SDS011;53956;52.442;13.284;2022-09-17T14:08:10;7.38;;;1.63;;
18125;SDS011;53956;52.442;13.284;2022-09-17T14:10:40;9.15;;;2.05;;
18125;SDS011;53956;52.442;13.284;2022-09-17T14:13:24;11.32;;;2.10;;
18125;SDS011;53956;52.442;13.284;2022-09-17T14:15:55;7.85;;;1.67;;
18125;SDS011;53956;52.442;13.284;2022-09-17T14:18:41;7.40;;;1.92;;
18125;SDS011;53956;52.442;13.284;2022-09-17T14:21:12;8.75;;;1.67;;
18125;SDS011;53956;52.442;13.284;2022-09-17T14:23:46;10.75;;;2.30;;
18125;SDS011;53956;52.442;13.284;2022-09-17T14:26:18;7.82;;;1.73;;
18125;SDS011;53956;52.442;13.284;2022-09-17T14:28:59;9.63;;;1.90;;
18125;SDS011;53956;52.442;13.284;2022-09-17T14:31:33;9.82;;;1.90;;
18125;SDS011;53956;52.442;13.284;2022-09-17T14:34:02;9.63;;;2.08;;
18125;SDS011;53956;52.442;13.284;2022-09-17T14:36:33;9.02;;;1.73;;
18125;SDS011;53956;52.442;13.284;2022-09-17T14:39:02;9.10;;;1.80;;
18125;SDS011;53956;52.442;13.284;2022-09-17T14:41:31;11.35;;;1.77;;
18125;SDS011;53956;52.442;13.284;2022-09-17T14:44:04;8.90;;;1.55;;
18125;SDS011;53956;52.442;13.284;2022-09-17T14:46:40;7.55;;;1.40;;
18125;SDS011;53956;52.442;13.284;2022-09-17T14:49:13;4.25;;;1.40;;
18125;SDS011;53956;52.442;13.284;2022-09-17T14:51:42;3.90;;;1.67;;
18125;SDS011;53956;52.442;13.284;2022-09-17T14:54:16;1.25;;;0.90;;
18125;SDS011;53956;52.442;13.284;2022-09-17T14:56:48;2.92;;;1.05;;
18125;SDS011;53956;52.442;13.284;2022-09-17T14:59:20;3.13;;;1.10;;
18125;SDS011;53956;52.442;13.284;2022-09-17T15:02:17;2.10;;;1.08;;
18125;SDS011;53956;52.442;13.284;2022-09-17T15:04:54;2.95;;;1.05;;
18125;SDS011;53956;52.442;13.284;2022-09-17T15:07:23;2.35;;;1.10;;
18125;SDS011;53956;52.442;13.284;2022-09-17T15:09:50;2.47;;;1.00;;
18125;SDS011;53956;52.442;13.284;2022-09-17T15:12:20;2.70;;;0.82;;
18125;SDS011;53956;52.442;13.284;2022-09-17T15:14:51;3.60;;;1.33;;
18125;SDS011;53956;52.442;13.284;2022-09-17T15:17:19;3.28;;;1.05;;
18125;SDS011;53956;52.442;13.284;2022-09-17T15:19:47;2.08;;;0.70;;